sensor_id;sensor_type;location;lat;lon;timestamp;pressure;altitude;pressure_sealevel;temperature;humidity
9307;BME280;4691;47.612;7.610;2023-03-04T00:01:10;98497.78;;;1.20;100.00
9307;BME280;4691;47.612;7.610;2023-03-04T00:03:35;98485.50;;;1.21;100.00
9307;BME280;4691;47.612;7.610;2023-03-04T00:06:01;98469.59;;;1.22;100.00
9307;BME280;4691;47.612;7.610;2023-03-04T00:08:26;98475.66;;;1.24;100.00
9307;BME280;4691;47.612;7.610;2023-03-04T00:10:52;98478.69;;;1.15;100.00
9307;BME280;4691;47.612;7.610;2023-03-04T00:13:17;98480.28;;;1.19;100.00
9307;BME280;4691;47.612;7.610;2023-03-04T00:15:46;98481.06;;;1.21;100.00
9307;BME280;4691;47.612;7.610;2023-03-04T00:18:11;98487.13;;;1.23;100.00
9307;BME280;4691;47.612;7.610;2023-03-04T00:20:36;98488.88;;;1.23;100.00
9307;BME280;4691;47.612;7.610;2023-03-04T00:23:02;98482.50;;;1.28;100.00
9307;BME280;4691;47.612;7.610;2023-03-04T00:25:27;98486.84;;;1.29;100.00
9307;BME280;4691;47.612;7.610;2023-03-04T00:27:52;98477.22;;;1.28;100.00
9307;BME280;4691;47.612;7.610;2023-03-04T00:30:18;98476.16;;;1.33;100.00
9307;BME280;4691;47.612;7.610;2023-03-04T00:32:43;98483.91;;;1.36;100.00
9307;BME280;4691;47.612;7.610;2023-03-04T00:35:08;98483.75;;;1.39;100.00
9307;BME280;4691;47.612;7.610;2023-03-04T00:37:34;98490.75;;;1.40;100.00
9307;BME280;4691;47.612;7.610;2023-03-04T00:39:59;98489.81;;;1.41;100.00
9307;BME280;4691;47.612;7.610;2023-03-04T00:42:24;98500.44;;;1.39;100.00
9307;BME280;4691;47.612;7.610;2023-03-04T00:44:50;98500.31;;;1.42;100.00
9307;BME280;4691;47.612;7.610;2023-03-04T00:47:16;98504.56;;;1.45;100.00
9307;BME280;4691;47.612;7.610;2023-03-04T00:49:41;98504.84;;;1.39;100.00
9307;BME280;4691;47.612;7.610;2023-03-04T00:52:07;98511.84;;;1.40;100.00
9307;BME280;4691;47.612;7.610;2023-03-04T00:54:32;98508.41;;;1.38;100.00
9307;BME280;4691;47.612;7.610;2023-03-04T00:56:57;98514.53;;;1.38;100.00
9307;BME280;4691;47.612;7.610;2023-03-04T00:59:22;98506.72;;;1.37;100.00
9307;BME280;4691;47.612;7.610;2023-03-04T01:01:48;98506.97;;;1.30;100.00
9307;BME280;4691;47.612;7.610;2023-03-04T01:04:13;98499.81;;;1.34;100.00
9307;BME280;4691;47.612;7.610;2023-03-04T01:06:38;98492.59;;;1.38;100.00
9307;BME280;4691;47.612;7.610;2023-03-04T01:09:04;98497.72;;;1.41;100.00
9307;BME280;4691;47.612;7.610;2023-03-04T01:11:29;98497.47;;;1.47;100.00
9307;BME280;4691;47.612;7.610;2023-03-04T01:13:54;98493.03;;;1.47;100.00
9307;BME280;4691;47.612;7.610;2023-03-04T01:16:20;98490.31;;;1.49;100.00
9307;BME280;4691;47.612;7.610;2023-03-04T01:18:45;98488.03;;;1.41;100.00
9307;BME280;4691;47.612;7.610;2023-03-04T01:21:11;98485.50;;;1.40;100.00
9307;BME280;4691;47.612;7.610;2023-03-04T01:23:37;98484.41;;;1.44;100.00
9307;BME280;4691;47.612;7.610;2023-03-04T01:26:02;98485.91;;;1.30;100.00
9307;BME280;4691;47.612;7.610;2023-03-04T01:28:28;98470.59;;;1.20;100.00
9307;BME280;4691;47.612;7.610;2023-03-04T01:30:53;98461.53;;;1.25;100.00
9307;BME280;4691;47.612;7.610;2023-03-04T01:33:19;98454.88;;;1.18;100.00
9307;BME280;4691;47.612;7.610;2023-03-04T01:35:44;98447.81;;;1.19;100.00
9307;BME280;4691;47.612;7.610;2023-03-04T01:38:10;98431.22;;;1.17;100.00
9307;BME280;4691;47.612;7.610;2023-03-04T01:40:37;98438.44;;;1.13;100.00
9307;BME280;4691;47.612;7.610;2023-03-04T01:43:03;98425.97;;;1.17;100.00
9307;BME280;4691;47.612;7.610;2023-03-04T01:45:30;98426.38;;;1.07;100.00
9307;BME280;4691;47.612;7.610;2023-03-04T01:47:56;98423.81;;;1.06;100.00
9307;BME280;4691;47.612;7.610;2023-03-04T01:50:33;98421.69;;;1.14;100.00
9307;BME280;4691;47.612;7.610;2023-03-04T01:52:59;98408.81;;;1.08;100.00
9307;BME280;4691;47.612;7.610;2023-03-04T01:55:25;98415.84;;;1.07;100.00
9307;BME280;4691;47.612;7.610;2023-03-04T01:57:51;98401.13;;;1.03;100.00
9307;BME280;4691;47.612;7.610;2023-03-04T02:00:30;98400.53;;;0.97;100.00
9307;BME280;4691;47.612;7.610;2023-03-04T02:03:02;98379.13;;;1.04;100.00
9307;BME280;4691;47.612;7.610;2023-03-04T02:05:28;98375.56;;;1.05;100.00
9307;BME280;4691;47.612;7.610;2023-03-04T02:07:54;98372.66;;;1.12;100.00
9307;BME280;4691;47.612;7.610;2023-03-04T02:10:21;98368.22;;;1.12;100.00
9307;BME280;4691;47.612;7.610;2023-03-04T02:12:47;98373.69;;;1.07;100.00
9307;BME280;4691;47.612;7.610;2023-03-04T02:15:12;98385.81;;;1.12;100.00
9307;BME280;4691;47.612;7.610;2023-03-04T02:17:38;98379.69;;;1.11;100.00
9307;BME280;4691;47.612;7.610;2023-03-04T02:20:24;98371.16;;;1.06;100.00
9307;BME280;4691;47.612;7.610;2023-03-04T02:23:08;98375.34;;;1.10;100.00
9307;BME280;4691;47.612;7.610;2023-03-04T02:25:49;98365.59;;;1.12;100.00
9307;BME280;4691;47.612;7.610;2023-03-04T02:28:17;98357.19;;;1.04;100.00
9307;BME280;4691;47.612;7.610;2023-03-04T02:30:42;98357.34;;;1.01;100.00
9307;BME280;4691;47.612;7.610;2023-03-04T02:33:16;98353.94;;;0.99;100.00
9307;BME280;4691;47.612;7.610;2023-03-04T02:35:41;98348.16;;;1.09;100.00
9307;BME280;4691;47.612;7.610;2023-03-04T02:38:09;98341.41;;;1.04;100.00
9307;BME280;4691;47.612;7.610;2023-03-04T02:40:34;98344.81;;;0.87;100.00
9307;BME280;4691;47.612;7.610;2023-03-04T02:43:00;98335.91;;;0.90;100.00
9307;BME280;4691;47.612;7.610;2023-03-04T02:45:36;98322.13;;;0.84;100.00
9307;BME280;4691;47.612;7.610;2023-03-04T02:48:02;98317.84;;;0.63;100.00
9307;BME280;4691;47.612;7.610;2023-03-04T02:50:31;98318.19;;;0.55;100.00
9307;BME280;4691;47.612;7.610;2023-03-04T02:52:57;98310.09;;;0.60;100.00
9307;BME280;4691;47.612;7.610;2023-03-04T02:55:22;98313.53;;;0.62;100.00
9307;BME280;4691;47.612;7.610;2023-03-04T02:57:48;98310.50;;;0.51;100.00
9307;BME280;4691;47.612;7.610;2023-03-04T03:00:13;98316.75;;;0.29;100.00
9307;BME280;4691;47.612;7.610;2023-03-04T03:02:39;98313.19;;;0.30;100.00
9307;BME280;4691;47.612;7.610;2023-03-04T03:05:04;98266.97;;;0.25;100.00
9307;BME280;4691;47.612;7.610;2023-03-04T03:07:30;98258.63;;;0.15;100.00
9307;BME280;4691;47.612;7.610;2023-03-04T03:09:55;98264.03;;;0.12;100.00
9307;BME280;4691;47.612;7.610;2023-03-04T03:12:20;98259.44;;;0.17;100.00
9307;BME280;4691;47.612;7.610;2023-03-04T03:14:45;98260.06;;;0.22;100.00
9307;BME280;4691;47.612;7.610;2023-03-04T03:19:31;98195.81;;;0.28;100.00
9307;BME280;4691;47.612;7.610;2023-03-04T03:21:57;98165.47;;;0.20;100.00
9307;BME280;4691;47.612;7.610;2023-03-04T03:24:22;98175.94;;;0.22;100.00
9307;BME280;4691;47.612;7.610;2023-03-04T03:26:47;98183.03;;;0.20;100.00
9307;BME280;4691;47.612;7.610;2023-03-04T03:29:13;98196.47;;;0.14;100.00
9307;BME280;4691;47.612;7.610;2023-03-04T03:31:38;98197.91;;;0.21;100.00
9307;BME280;4691;47.612;7.610;2023-03-04T03:34:03;98207.78;;;0.16;100.00
9307;BME280;4691;47.612;7.610;2023-03-04T03:36:28;98213.78;;;0.18;100.00
9307;BME280;4691;47.612;7.610;2023-03-04T03:38:54;98216.56;;;0.15;100.00
9307;BME280;4691;47.612;7.610;2023-03-04T03:41:19;98216.50;;;0.16;100.00
9307;BME280;4691;47.612;7.610;2023-03-04T03:43:44;98222.81;;;0.12;100.00
9307;BME280;4691;47.612;7.610;2023-03-04T03:46:09;98220.81;;;-0.02;100.00
9307;BME280;4691;47.612;7.610;2023-03-04T03:48:35;98223.44;;;-0.02;100.00
9307;BME280;4691;47.612;7.610;2023-03-04T03:51:00;98221.88;;;-0.06;100.00
9307;BME280;4691;47.612;7.610;2023-03-04T03:53:28;98230.69;;;-0.07;100.00
9307;BME280;4691;47.612;7.610;2023-03-04T03:55:56;98243.03;;;-0.29;100.00
9307;BME280;4691;47.612;7.610;2023-03-04T03:58:23;98248.97;;;-0.24;100.00
9307;BME280;4691;47.612;7.610;2023-03-04T04:00:56;98283.78;;;-0.19;100.00
9307;BME280;4691;47.612;7.610;2023-03-04T04:03:22;98293.75;;;-0.27;100.00
9307;BME280;4691;47.612;7.610;2023-03-04T04:05:47;98305.22;;;-0.28;100.00
9307;BME280;4691;47.612;7.610;2023-03-04T04:08:14;98343.41;;;-0.21;100.00
9307;BME280;4691;47.612;7.610;2023-03-04T04:10:43;98351.53;;;-0.26;100.00
9307;BME280;4691;47.612;7.610;2023-03-04T04:13:11;98348.16;;;-0.29;100.00
9307;BME280;4691;47.612;7.610;2023-03-04T04:15:37;98357.09;;;-0.33;100.00
9307;BME280;4691;47.612;7.610;2023-03-04T04:18:04;98360.09;;;-0.42;100.00
9307;BME280;4691;47.612;7.610;2023-03-04T04:20:30;98363.75;;;-0.47;100.00
9307;BME280;4691;47.612;7.610;2023-03-04T04:22:55;98368.41;;;-0.53;100.00
9307;BME280;4691;47.612;7.610;2023-03-04T04:25:20;98371.84;;;-0.51;100.00
9307;BME280;4691;47.612;7.610;2023-03-04T04:27:46;98365.22;;;-0.61;100.00
9307;BME280;4691;47.612;7.610;2023-03-04T04:30:12;98386.41;;;-0.66;100.00
9307;BME280;4691;47.612;7.610;2023-03-04T04:32:37;98409.13;;;-0.65;100.00
9307;BME280;4691;47.612;7.610;2023-03-04T04:35:05;98455.50;;;-0.64;100.00
9307;BME280;4691;47.612;7.610;2023-03-04T04:37:32;98534.66;;;-0.75;100.00
9307;BME280;4691;47.612;7.610;2023-03-04T04:39:57;98527.41;;;-0.68;100.00
9307;BME280;4691;47.612;7.610;2023-03-04T04:42:23;98538.09;;;-0.73;100.00
9307;BME280;4691;47.612;7.610;2023-03-04T04:44:48;98560.63;;;-0.67;100.00
9307;BME280;4691;47.612;7.610;2023-03-04T04:47:14;98567.91;;;-0.74;100.00
9307;BME280;4691;47.612;7.610;2023-03-04T04:49:39;98566.94;;;-0.71;100.00
9307;BME280;4691;47.612;7.610;2023-03-04T04:52:05;98564.06;;;-0.65;100.00
9307;BME280;4691;47.612;7.610;2023-03-04T04:54:30;98569.56;;;-0.71;100.00
9307;BME280;4691;47.612;7.610;2023-03-04T04:56:56;98570.28;;;-0.68;100.00
9307;BME280;4691;47.612;7.610;2023-03-04T04:59:21;98569.44;;;-0.68;100.00
9307;BME280;4691;47.612;7.610;2023-03-04T05:01:47;98576.50;;;-0.70;100.00
9307;BME280;4691;47.612;7.610;2023-03-04T05:04:16;98581.41;;;-0.84;100.00
9307;BME280;4691;47.612;7.610;2023-03-04T05:06:41;98582.19;;;-0.82;100.00
9307;BME280;4691;47.612;7.610;2023-03-04T05:09:07;98591.25;;;-0.66;100.00
9307;BME280;4691;47.612;7.610;2023-03-04T05:11:40;98565.66;;;-0.84;100.00
9307;BME280;4691;47.612;7.610;2023-03-04T05:14:06;98563.13;;;-0.88;100.00
9307;BME280;4691;47.612;7.610;2023-03-04T05:16:31;98567.69;;;-0.93;100.00
9307;BME280;4691;47.612;7.610;2023-03-04T05:18:57;98562.91;;;-0.81;100.00
9307;BME280;4691;47.612;7.610;2023-03-04T05:21:22;98559.91;;;-0.96;100.00
9307;BME280;4691;47.612;7.610;2023-03-04T05:23:48;98572.16;;;-0.95;100.00
9307;BME280;4691;47.612;7.610;2023-03-04T05:26:16;98584.47;;;-0.97;100.00
9307;BME280;4691;47.612;7.610;2023-03-04T05:28:42;98538.31;;;-1.02;100.00
9307;BME280;4691;47.612;7.610;2023-03-04T05:31:07;98550.63;;;-1.04;100.00
9307;BME280;4691;47.612;7.610;2023-03-04T05:33:36;98561.28;;;-1.09;100.00
9307;BME280;4691;47.612;7.610;2023-03-04T05:36:03;98570.91;;;-1.10;100.00
9307;BME280;4691;47.612;7.610;2023-03-04T05:38:29;98567.63;;;-1.16;100.00
9307;BME280;4691;47.612;7.610;2023-03-04T05:40:59;98574.50;;;-1.12;100.00
9307;BME280;4691;47.612;7.610;2023-03-04T05:43:26;98579.31;;;-1.00;100.00
9307;BME280;4691;47.612;7.610;2023-03-04T05:45:52;98562.06;;;-1.07;100.00
9307;BME280;4691;47.612;7.610;2023-03-04T05:48:18;98556.81;;;-1.07;100.00
9307;BME280;4691;47.612;7.610;2023-03-04T05:50:43;98569.38;;;-1.15;100.00
9307;BME280;4691;47.612;7.610;2023-03-04T05:53:09;98565.06;;;-1.18;100.00
9307;BME280;4691;47.612;7.610;2023-03-04T05:55:35;98568.59;;;-1.19;100.00
9307;BME280;4691;47.612;7.610;2023-03-04T05:58:00;98566.88;;;-1.20;100.00
9307;BME280;4691;47.612;7.610;2023-03-04T06:00:26;98567.50;;;-1.13;100.00
9307;BME280;4691;47.612;7.610;2023-03-04T06:02:51;98577.00;;;-1.09;100.00
9307;BME280;4691;47.612;7.610;2023-03-04T06:05:17;98583.06;;;-1.07;100.00
9307;BME280;4691;47.612;7.610;2023-03-04T06:07:43;98590.09;;;-1.07;100.00
9307;BME280;4691;47.612;7.610;2023-03-04T06:10:11;98590.25;;;-1.12;100.00
9307;BME280;4691;47.612;7.610;2023-03-04T06:12:37;98589.13;;;-1.05;100.00
9307;BME280;4691;47.612;7.610;2023-03-04T06:15:02;98581.41;;;-1.10;100.00
9307;BME280;4691;47.612;7.610;2023-03-04T06:17:29;98574.50;;;-1.12;100.00
9307;BME280;4691;47.612;7.610;2023-03-04T06:19:54;98577.72;;;-1.04;100.00
9307;BME280;4691;47.612;7.610;2023-03-04T06:22:20;98565.72;;;-1.11;100.00
9307;BME280;4691;47.612;7.610;2023-03-04T06:24:45;98546.44;;;-1.10;100.00
9307;BME280;4691;47.612;7.610;2023-03-04T06:27:11;98525.44;;;-1.10;100.00
9307;BME280;4691;47.612;7.610;2023-03-04T06:29:37;98509.78;;;-1.13;100.00
9307;BME280;4691;47.612;7.610;2023-03-04T06:32:03;98495.91;;;-1.15;100.00
9307;BME280;4691;47.612;7.610;2023-03-04T06:34:28;98481.00;;;-1.15;100.00
9307;BME280;4691;47.612;7.610;2023-03-04T06:36:54;98480.88;;;-1.12;100.00
9307;BME280;4691;47.612;7.610;2023-03-04T06:39:20;98465.59;;;-1.00;100.00
9307;BME280;4691;47.612;7.610;2023-03-04T06:41:45;98460.84;;;-0.91;100.00
9307;BME280;4691;47.612;7.610;2023-03-04T06:44:11;98484.28;;;-0.84;100.00
9307;BME280;4691;47.612;7.610;2023-03-04T06:46:36;98458.78;;;-0.82;100.00
9307;BME280;4691;47.612;7.610;2023-03-04T06:49:02;98446.00;;;-0.68;100.00
9307;BME280;4691;47.612;7.610;2023-03-04T06:51:28;98439.63;;;-0.61;100.00
9307;BME280;4691;47.612;7.610;2023-03-04T06:53:54;98416.66;;;-0.56;100.00
9307;BME280;4691;47.612;7.610;2023-03-04T06:56:20;98400.66;;;-0.50;100.00
9307;BME280;4691;47.612;7.610;2023-03-04T06:58:46;98370.94;;;-0.52;100.00
9307;BME280;4691;47.612;7.610;2023-03-04T07:01:14;98344.09;;;-0.58;100.00
9307;BME280;4691;47.612;7.610;2023-03-04T07:03:40;98332.34;;;-0.50;100.00
9307;BME280;4691;47.612;7.610;2023-03-04T07:06:08;98311.53;;;-0.34;100.00
9307;BME280;4691;47.612;7.610;2023-03-04T07:08:37;98296.00;;;-0.18;100.00
9307;BME280;4691;47.612;7.610;2023-03-04T07:11:03;98290.19;;;-0.06;100.00
9307;BME280;4691;47.612;7.610;2023-03-04T07:13:29;98286.75;;;0.13;100.00
9307;BME280;4691;47.612;7.610;2023-03-04T07:15:54;98290.94;;;0.18;100.00
9307;BME280;4691;47.612;7.610;2023-03-04T07:18:23;98296.25;;;0.17;100.00
9307;BME280;4691;47.612;7.610;2023-03-04T07:20:51;98309.91;;;0.05;100.00
9307;BME280;4691;47.612;7.610;2023-03-04T07:23:19;98329.25;;;0.24;100.00
9307;BME280;4691;47.612;7.610;2023-03-04T07:25:45;98342.84;;;-0.07;100.00
9307;BME280;4691;47.612;7.610;2023-03-04T07:28:12;98342.06;;;0.11;100.00
9307;BME280;4691;47.612;7.610;2023-03-04T07:30:38;98356.44;;;0.23;100.00
9307;BME280;4691;47.612;7.610;2023-03-04T07:33:04;98354.78;;;0.20;100.00
9307;BME280;4691;47.612;7.610;2023-03-04T07:35:29;98365.44;;;0.17;100.00
9307;BME280;4691;47.612;7.610;2023-03-04T07:37:55;98355.03;;;0.16;100.00
9307;BME280;4691;47.612;7.610;2023-03-04T07:40:23;98347.88;;;0.18;100.00
9307;BME280;4691;47.612;7.610;2023-03-04T07:42:53;98339.47;;;0.30;100.00
9307;BME280;4691;47.612;7.610;2023-03-04T07:45:19;98336.19;;;0.25;100.00
9307;BME280;4691;47.612;7.610;2023-03-04T07:47:45;98341.44;;;0.46;100.00
9307;BME280;4691;47.612;7.610;2023-03-04T07:50:11;98338.38;;;0.15;100.00
9307;BME280;4691;47.612;7.610;2023-03-04T07:52:42;98345.34;;;0.37;100.00
9307;BME280;4691;47.612;7.610;2023-03-04T07:55:09;98347.56;;;0.26;100.00
9307;BME280;4691;47.612;7.610;2023-03-04T07:57:37;98349.19;;;0.28;100.00
9307;BME280;4691;47.612;7.610;2023-03-04T08:00:03;98356.16;;;0.50;100.00
9307;BME280;4691;47.612;7.610;2023-03-04T08:02:29;98369.53;;;0.64;100.00
9307;BME280;4691;47.612;7.610;2023-03-04T08:04:54;98386.38;;;0.80;100.00
9307;BME280;4691;47.612;7.610;2023-03-04T08:07:20;98384.13;;;0.71;100.00
9307;BME280;4691;47.612;7.610;2023-03-04T08:09:46;98404.81;;;0.60;100.00
9307;BME280;4691;47.612;7.610;2023-03-04T08:12:11;98414.81;;;0.72;100.00
9307;BME280;4691;47.612;7.610;2023-03-04T08:14:37;98424.88;;;0.62;100.00
9307;BME280;4691;47.612;7.610;2023-03-04T08:17:02;98441.00;;;0.75;100.00
9307;BME280;4691;47.612;7.610;2023-03-04T08:19:27;98453.38;;;1.32;100.00
9307;BME280;4691;47.612;7.610;2023-03-04T08:21:53;98474.50;;;1.11;100.00
9307;BME280;4691;47.612;7.610;2023-03-04T08:24:21;98517.94;;;1.21;100.00
9307;BME280;4691;47.612;7.610;2023-03-04T08:26:48;98543.91;;;1.49;100.00
9307;BME280;4691;47.612;7.610;2023-03-04T08:29:20;98584.19;;;1.51;100.00
9307;BME280;4691;47.612;7.610;2023-03-04T08:31:47;98618.31;;;1.75;100.00
9307;BME280;4691;47.612;7.610;2023-03-04T08:34:13;98695.00;;;1.48;100.00
9307;BME280;4691;47.612;7.610;2023-03-04T08:36:39;98729.78;;;1.57;100.00
9307;BME280;4691;47.612;7.610;2023-03-04T08:39:05;98747.41;;;1.77;100.00
9307;BME280;4691;47.612;7.610;2023-03-04T08:41:31;98763.63;;;1.88;100.00
9307;BME280;4691;47.612;7.610;2023-03-04T08:43:58;98789.00;;;2.11;100.00
9307;BME280;4691;47.612;7.610;2023-03-04T08:46:23;98811.03;;;2.49;100.00
9307;BME280;4691;47.612;7.610;2023-03-04T08:48:49;98860.78;;;2.38;100.00
9307;BME280;4691;47.612;7.610;2023-03-04T08:51:15;98889.09;;;2.34;100.00
9307;BME280;4691;47.612;7.610;2023-03-04T08:53:41;98904.59;;;2.22;100.00
9307;BME280;4691;47.612;7.610;2023-03-04T08:56:07;98913.44;;;1.56;100.00
9307;BME280;4691;47.612;7.610;2023-03-04T08:58:33;98911.34;;;1.86;100.00
9307;BME280;4691;47.612;7.610;2023-03-04T09:01:00;98921.53;;;1.29;100.00
9307;BME280;4691;47.612;7.610;2023-03-04T09:03:29;98907.56;;;1.49;100.00
9307;BME280;4691;47.612;7.610;2023-03-04T09:05:55;98896.16;;;1.93;100.00
9307;BME280;4691;47.612;7.610;2023-03-04T09:08:20;98904.47;;;1.82;100.00
9307;BME280;4691;47.612;7.610;2023-03-04T09:10:46;98921.94;;;1.85;100.00
9307;BME280;4691;47.612;7.610;2023-03-04T09:13:12;98912.47;;;1.81;100.00
9307;BME280;4691;47.612;7.610;2023-03-04T09:15:48;98908.25;;;1.97;100.00
9307;BME280;4691;47.612;7.610;2023-03-04T09:18:15;98900.97;;;2.04;100.00
9307;BME280;4691;47.612;7.610;2023-03-04T09:20:42;98912.69;;;1.96;100.00
9307;BME280;4691;47.612;7.610;2023-03-04T09:23:07;98907.63;;;1.70;100.00
9307;BME280;4691;47.612;7.610;2023-03-04T09:25:34;98908.81;;;2.26;100.00
9307;BME280;4691;47.612;7.610;2023-03-04T09:28:00;98927.56;;;2.20;100.00
9307;BME280;4691;47.612;7.610;2023-03-04T09:30:25;98945.84;;;2.02;100.00
9307;BME280;4691;47.612;7.610;2023-03-04T09:32:51;98952.16;;;2.20;100.00
9307;BME280;4691;47.612;7.610;2023-03-04T09:35:16;98961.09;;;2.58;100.00
9307;BME280;4691;47.612;7.610;2023-03-04T09:37:41;98984.97;;;2.96;100.00
9307;BME280;4691;47.612;7.610;2023-03-04T09:40:10;99025.53;;;3.54;100.00
9307;BME280;4691;47.612;7.610;2023-03-04T09:42:46;99081.97;;;3.73;100.00
9307;BME280;4691;47.612;7.610;2023-03-04T09:45:17;99131.47;;;3.30;100.00
9307;BME280;4691;47.612;7.610;2023-03-04T09:47:45;99136.94;;;3.05;100.00
9307;BME280;4691;47.612;7.610;2023-03-04T09:50:12;99144.13;;;2.81;100.00
9307;BME280;4691;47.612;7.610;2023-03-04T09:55:29;99144.50;;;3.35;100.00
9307;BME280;4691;47.612;7.610;2023-03-04T09:58:51;99165.84;;;3.90;100.00
9307;BME280;4691;47.612;7.610;2023-03-04T10:01:02;99202.63;;;3.96;100.00
9307;BME280;4691;47.612;7.610;2023-03-04T10:03:53;99213.00;;;3.19;100.00
9307;BME280;4691;47.612;7.610;2023-03-04T10:06:21;99199.88;;;3.58;100.00
9307;BME280;4691;47.612;7.610;2023-03-04T10:08:55;99209.84;;;3.72;100.00
9307;BME280;4691;47.612;7.610;2023-03-04T10:16:52;99229.34;;;4.29;100.00
9307;BME280;4691;47.612;7.610;2023-03-04T10:19:27;99243.16;;;4.36;100.00
9307;BME280;4691;47.612;7.610;2023-03-04T10:21:54;99256.28;;;4.58;100.00
9307;BME280;4691;47.612;7.610;2023-03-04T10:24:22;99271.47;;;5.46;100.00
9307;BME280;4691;47.612;7.610;2023-03-04T10:26:53;99296.38;;;5.61;100.00
9307;BME280;4691;47.612;7.610;2023-03-04T10:29:22;99313.69;;;5.14;100.00
9307;BME280;4691;47.612;7.610;2023-03-04T10:31:48;99317.38;;;4.34;100.00
9307;BME280;4691;47.612;7.610;2023-03-04T10:34:16;99307.63;;;4.35;100.00
9307;BME280;4691;47.612;7.610;2023-03-04T10:37:01;99294.28;;;5.31;100.00
9307;BME280;4691;47.612;7.610;2023-03-04T10:39:31;99301.50;;;4.72;100.00
9307;BME280;4691;47.612;7.610;2023-03-04T10:44:31;99277.22;;;4.44;100.00
9307;BME280;4691;47.612;7.610;2023-03-04T10:46:58;99279.31;;;4.94;100.00
9307;BME280;4691;47.612;7.610;2023-03-04T10:49:24;99291.34;;;7.07;100.00
9307;BME280;4691;47.612;7.610;2023-03-04T10:51:53;99326.63;;;9.73;100.00
9307;BME280;4691;47.612;7.610;2023-03-04T10:54:24;99347.94;;;9.33;100.00
9307;BME280;4691;47.612;7.610;2023-03-04T10:59:59;99361.34;;;5.52;100.00
9307;BME280;4691;47.612;7.610;2023-03-04T11:02:33;99342.19;;;5.64;100.00
9307;BME280;4691;47.612;7.610;2023-03-04T11:07:39;99332.75;;;9.60;100.00
9307;BME280;4691;47.612;7.610;2023-03-04T11:10:24;99358.09;;;8.26;100.00
9307;BME280;4691;47.612;7.610;2023-03-04T11:15:58;99357.56;;;10.42;100.00
9307;BME280;4691;47.612;7.610;2023-03-04T11:18:45;99373.44;;;9.37;100.00
9307;BME280;4691;47.612;7.610;2023-03-04T11:21:21;99377.25;;;10.41;100.00
9307;BME280;4691;47.612;7.610;2023-03-04T11:23:54;99381.34;;;8.38;100.00
9307;BME280;4691;47.612;7.610;2023-03-04T11:26:27;99365.56;;;11.19;100.00
9307;BME280;4691;47.612;7.610;2023-03-04T11:32:23;99376.09;;;9.78;100.00
9307;BME280;4691;47.612;7.610;2023-03-04T11:34:57;99352.63;;;12.80;100.00
9307;BME280;4691;47.612;7.610;2023-03-04T11:37:56;99351.28;;;13.31;100.00
9307;BME280;4691;47.612;7.610;2023-03-04T11:40:34;99355.44;;;13.01;100.00
9307;BME280;4691;47.612;7.610;2023-03-04T11:43:18;99322.13;;;15.16;100.00
9307;BME280;4691;47.612;7.610;2023-03-04T11:48:52;99372.53;;;12.31;100.00
9307;BME280;4691;47.612;7.610;2023-03-04T11:51:49;99353.84;;;12.64;100.00
9307;BME280;4691;47.612;7.610;2023-03-04T11:57:02;99345.91;;;12.97;100.00
9307;BME280;4691;47.612;7.610;2023-03-04T12:02:16;99343.00;;;12.77;100.00
9307;BME280;4691;47.612;7.610;2023-03-04T12:07:57;99323.59;;;13.30;100.00
9307;BME280;4691;47.612;7.610;2023-03-04T12:10:40;99348.47;;;12.64;100.00
9307;BME280;4691;47.612;7.610;2023-03-04T12:16:09;99333.09;;;14.10;100.00
9307;BME280;4691;47.612;7.610;2023-03-04T12:32:34;99276.22;;;14.77;100.00
9307;BME280;4691;47.612;7.610;2023-03-04T12:35:23;99255.97;;;16.21;100.00
9307;BME280;4691;47.612;7.610;2023-03-04T12:43:26;99251.59;;;15.42;100.00
9307;BME280;4691;47.612;7.610;2023-03-04T12:46:11;99268.59;;;13.57;100.00
9307;BME280;4691;47.612;7.610;2023-03-04T12:55:07;99244.47;;;14.50;100.00
9307;BME280;4691;47.612;7.610;2023-03-04T12:57:33;99202.19;;;16.09;100.00
9307;BME280;4691;47.612;7.610;2023-03-04T13:05:22;99225.03;;;14.16;100.00
9307;BME280;4691;47.612;7.610;2023-03-04T13:08:46;99171.28;;;15.75;100.00
9307;BME280;4691;47.612;7.610;2023-03-04T13:10:41;99147.56;;;17.98;100.00
9307;BME280;4691;47.612;7.610;2023-03-04T13:13:38;99205.03;;;15.20;100.00
9307;BME280;4691;47.612;7.610;2023-03-04T13:16:27;99169.72;;;15.82;100.00
9307;BME280;4691;47.612;7.610;2023-03-04T13:18:53;99194.78;;;14.95;100.00
9307;BME280;4691;47.612;7.610;2023-03-04T13:21:27;99112.44;;;17.80;100.00
9307;BME280;4691;47.612;7.610;2023-03-04T13:23:53;99182.06;;;15.16;100.00
9307;BME280;4691;47.612;7.610;2023-03-04T13:26:26;99174.94;;;14.96;100.00
9307;BME280;4691;47.612;7.610;2023-03-04T13:32:12;99117.66;;;17.55;100.00
9307;BME280;4691;47.612;7.610;2023-03-04T13:37:26;99113.03;;;17.92;100.00
9307;BME280;4691;47.612;7.610;2023-03-04T13:40:22;99148.34;;;13.70;100.00
9307;BME280;4691;47.612;7.610;2023-03-04T13:42:51;99096.00;;;17.99;100.00
9307;BME280;4691;47.612;7.610;2023-03-04T13:45:36;99080.56;;;17.92;100.00
9307;BME280;4691;47.612;7.610;2023-03-04T13:48:22;99094.13;;;18.00;100.00
9307;BME280;4691;47.612;7.610;2023-03-04T13:50:49;99082.38;;;18.60;100.00
9307;BME280;4691;47.612;7.610;2023-03-04T13:54:28;99104.19;;;16.46;100.00
9307;BME280;4691;47.612;7.610;2023-03-04T13:56:39;99087.28;;;17.88;100.00
9307;BME280;4691;47.612;7.610;2023-03-04T14:02:01;99107.41;;;17.05;100.00
9307;BME280;4691;47.612;7.610;2023-03-04T14:04:34;99078.50;;;18.12;100.00
9307;BME280;4691;47.612;7.610;2023-03-04T14:07:46;99063.22;;;19.36;100.00
9307;BME280;4691;47.612;7.610;2023-03-04T14:09:57;99099.38;;;16.95;100.00
9307;BME280;4691;47.612;7.610;2023-03-04T14:12:25;99138.97;;;15.36;100.00
9307;BME280;4691;47.612;7.610;2023-03-04T14:14:54;99093.56;;;16.45;100.00
9307;BME280;4691;47.612;7.610;2023-03-04T14:17:23;99098.09;;;16.17;100.00
9307;BME280;4691;47.612;7.610;2023-03-04T14:19:50;99067.03;;;18.68;100.00
9307;BME280;4691;47.612;7.610;2023-03-04T14:22:36;99118.47;;;16.01;100.00
9307;BME280;4691;47.612;7.610;2023-03-04T14:27:43;99086.09;;;16.57;100.00
9307;BME280;4691;47.612;7.610;2023-03-04T14:32:45;99055.00;;;18.63;100.00
9307;BME280;4691;47.612;7.610;2023-03-04T14:35:37;99062.53;;;17.30;100.00
9307;BME280;4691;47.612;7.610;2023-03-04T14:38:28;99087.00;;;15.82;100.00
9307;BME280;4691;47.612;7.610;2023-03-04T14:41:19;99074.75;;;16.25;100.00
9307;BME280;4691;47.612;7.610;2023-03-04T14:44:05;99081.50;;;16.11;100.00
9307;BME280;4691;47.612;7.610;2023-03-04T14:46:52;99106.66;;;14.47;100.00
9307;BME280;4691;47.612;7.610;2023-03-04T14:49:19;99023.91;;;18.24;100.00
9307;BME280;4691;47.612;7.610;2023-03-04T14:51:55;99035.91;;;17.88;100.00